Time;durP1;ratioP1;P1;durP2;ratioP2;P2;SDS_P1;SDS_P2;PMS_P1;PMS_P2;Temp;Humidity;BMP_temperature;BMP_pressure;BME280_temperature;BME280_humidity;BME280_pressure;Samples;Min_cycle;Max_cycle;Signal;HPM_P1;HPM_P2
2023/10/01 00:00:17;;;;;;;9.80;8.50;;;10.80;99.90;;;10.29;100.00;98924.28;5087148;28;20771;-75
2023/10/01 00:02:44;;;;;;;13.30;9.67;;;10.80;99.90;;;10.29;100.00;98929.69;5086854;28;20477;-76
2023/10/01 00:05:12;;;;;;;10.23;8.70;;;10.70;99.90;;;10.26;100.00;98930.88;5086655;28;20460;-76
2023/10/01 00:07:40;;;;;;;13.03;9.90;;;10.70;99.90;;;10.25;100.00;98931.09;5083174;28;20471;-76
2023/10/01 00:10:10;;;;;;;12.20;8.90;;;10.70;99.90;;;10.31;100.00;98933.88;5079936;28;20768;-76
2023/10/01 00:12:44;;;;;;;13.23;9.10;;;10.70;99.90;;;10.32;100.00;98932.84;5087858;28;20554;-76
2023/10/01 00:15:16;;;;;;;11.40;8.43;;;10.60;99.90;;;10.38;100.00;98928.50;5081453;28;20451;-76
2023/10/01 00:17:45;;;;;;;9.37;7.83;;;10.70;99.90;;;10.26;100.00;98930.88;5097703;28;20452;-76
2023/10/01 00:20:17;;;;;;;11.10;8.70;;;10.60;99.90;;;10.20;100.00;98928.97;5083827;28;20565;-76
2023/10/01 00:22:45;;;;;;;13.63;8.53;;;10.60;99.90;;;10.09;100.00;98919.50;5085078;28;20601;-75
2023/10/01 00:25:13;;;;;;;12.77;8.37;;;10.50;99.70;;;10.21;100.00;98923.34;5087338;28;20448;-75
2023/10/01 00:27:40;;;;;;;11.77;8.63;;;10.50;99.90;;;10.17;100.00;98916.66;5087714;28;20455;-75
2023/10/01 00:30:09;;;;;;;13.93;8.80;;;10.60;99.90;;;10.19;100.00;98924.59;5079745;28;20531;-75
2023/10/01 00:32:39;;;;;;;13.00;9.03;;;10.60;99.90;;;10.24;100.00;98913.22;5085258;28;20543;-75
2023/10/01 00:35:11;;;;;;;10.07;8.40;;;10.60;99.90;;;10.12;100.00;98920.97;5072198;28;20459;-75
2023/10/01 00:37:38;;;;;;;10.50;8.83;;;10.50;99.90;;;10.07;100.00;98905.31;5085022;28;20479;-74
2023/10/01 00:40:08;;;;;;;11.60;8.97;;;10.60;99.90;;;10.11;100.00;98916.59;5093594;28;20451;-74
2023/10/01 00:42:36;;;;;;;13.10;8.50;;;10.50;99.70;;;10.06;100.00;98912.59;5084453;28;20478;-74
2023/10/01 00:45:07;;;;;;;15.03;9.17;;;10.40;99.70;;;9.95;100.00;98917.66;5088010;28;20454;-75
2023/10/01 00:47:40;;;;;;;14.90;8.20;;;10.40;99.40;;;9.93;100.00;98907.03;5084766;28;20722;-75
2023/10/01 00:50:11;;;;;;;14.17;8.73;;;10.40;99.60;;;10.02;100.00;98908.63;5078692;28;20441;-76
2023/10/01 00:52:39;;;;;;;12.80;9.10;;;10.40;99.90;;;9.87;100.00;98899.72;5085821;28;20448;-76
2023/10/01 00:55:08;;;;;;;10.60;8.33;;;10.40;99.80;;;9.99;100.00;98913.56;5086772;28;20465;-76
2023/10/01 00:57:38;;;;;;;13.00;7.70;;;10.30;99.70;;;9.78;100.00;98912.47;5085801;28;20455;-75
2023/10/01 01:00:12;;;;;;;12.10;8.47;;;10.20;99.50;;;9.73;100.00;98912.19;5084561;28;20570;-75
2023/10/01 01:02:46;;;;;;;15.83;9.43;;;10.10;99.20;;;9.67;100.00;98902.97;5084092;28;20509;-76
2023/10/01 01:05:23;;;;;;;10.60;7.83;;;10.10;99.90;;;9.64;100.00;98911.47;5085277;28;20459;-75
2023/10/01 01:07:51;;;;;;;11.70;8.90;;;10.00;99.90;;;9.55;100.00;98921.50;5087251;28;20579;-75
2023/10/01 01:10:20;;;;;;;10.43;8.83;;;9.90;99.90;;;9.46;100.00;98906.44;5081986;28;20478;-76
2023/10/01 01:12:53;;;;;;;12.43;8.93;;;9.80;99.90;;;9.40;100.00;98904.50;5085317;28;20455;-76
2023/10/01 01:15:21;;;;;;;12.43;9.30;;;9.80;99.90;;;9.46;100.00;98903.75;5086181;28;20448;-75
2023/10/01 01:17:50;;;;;;;13.20;9.40;;;9.80;99.90;;;9.42;100.00;98913.22;5079245;28;20972;-76
2023/10/01 01:20:19;;;;;;;13.07;9.20;;;9.80;99.90;;;9.42;100.00;98905.13;5093012;28;20546;-76
2023/10/01 01:22:51;;;;;;;16.00;8.93;;;9.70;99.90;;;9.40;100.00;98896.41;5085105;28;20468;-77
2023/10/01 01:25:21;;;;;;;12.63;9.33;;;9.80;99.90;;;9.44;100.00;98892.31;5082157;28;20480;-76
2023/10/01 01:27:50;;;;;;;13.07;9.30;;;9.80;99.90;;;9.47;100.00;98900.88;5083018;28;20487;-76
2023/10/01 01:30:19;;;;;;;15.13;9.37;;;9.90;99.90;;;9.42;100.00;98886.25;5083806;28;20452;-76
2023/10/01 01:32:53;;;;;;;13.17;10.27;;;9.80;99.90;;;9.47;100.00;98891.91;5085641;28;20445;-76
2023/10/01 01:35:27;;;;;;;12.97;9.73;;;9.80;99.90;;;9.43;100.00;98904.13;5085266;28;20462;-75
2023/10/01 01:37:58;;;;;;;13.30;9.60;;;9.80;99.90;;;9.24;100.00;98897.41;5085301;28;20447;-76
2023/10/01 01:40:31;;;;;;;13.27;9.77;;;9.70;99.90;;;9.30;100.00;98907.47;5085113;28;20978;-76
2023/10/01 01:43:04;;;;;;;14.20;9.60;;;9.70;99.90;;;9.21;100.00;98904.03;5086336;28;20823;-76
2023/10/01 01:45:38;;;;;;;14.43;9.70;;;9.70;99.90;;;9.28;100.00;98902.25;5087315;28;20793;-75
2023/10/01 01:48:21;;;;;;;10.90;8.70;;;9.60;99.90;;;9.18;100.00;98901.72;5086633;28;20470;-75
2023/10/01 01:50:49;;;;;;;13.77;10.03;;;9.60;99.90;;;9.18;100.00;98902.53;5089746;28;20515;-75
2023/10/01 01:53:19;;;;;;;12.93;9.50;;;9.60;99.90;;;9.10;100.00;98904.47;5089782;28;20669;-74
2023/10/01 01:55:47;;;;;;;12.63;9.40;;;9.50;99.90;;;9.07;100.00;98906.53;5092288;28;20967;-74
2023/10/01 01:58:23;;;;;;;12.70;9.00;;;9.50;99.90;;;9.06;100.00;98917.47;5100550;28;20442;-75
2023/10/01 02:01:08;;;;;;;14.00;9.50;;;9.50;99.90;;;9.06;100.00;98914.78;5085941;28;20469;-76
2023/10/01 02:03:38;;;;;;;14.67;9.00;;;9.50;99.90;;;8.46;100.00;98829.25;5086148;28;20470;-75
2023/10/01 02:06:07;;;;;;;13.47;9.00;;;9.50;99.90;;;8.96;100.00;98915.06;5085173;28;20946;-75
2023/10/01 02:08:47;;;;;;;15.30;9.30;;;9.40;99.90;;;8.86;100.00;98912.63;5083496;28;21290;-76
2023/10/01 02:11:15;;;;;;;11.47;8.70;;;9.40;99.90;;;8.79;100.00;98909.81;5082737;28;21354;-75
2023/10/01 02:13:45;;;;;;;13.50;9.00;;;9.30;99.90;;;8.76;100.00;98915.56;5084673;28;20499;-76
2023/10/01 02:16:34;;;;;;;11.73;9.17;;;9.30;99.90;;;8.80;100.00;98910.66;5086416;28;20945;-75
2023/10/01 02:19:17;;;;;;;11.87;7.57;;;9.30;99.90;;;8.76;100.00;98909.34;5083639;28;20856;-75
2023/10/01 02:21:49;;;;;;;11.17;8.50;;;9.20;99.90;;;8.72;100.00;98908.88;5085621;28;20449;-75
2023/10/01 02:24:22;;;;;;;10.33;8.30;;;9.20;99.90;;;8.72;100.00;98908.88;5088175;28;20461;-75
2023/10/01 02:26:53;;;;;;;10.77;8.93;;;9.20;99.90;;;8.69;100.00;98909.22;5086498;28;20550;-76
2023/10/01 02:29:24;;;;;;;15.80;10.17;;;9.20;99.90;;;8.65;100.00;98913.31;5086937;28;20451;-74
2023/10/01 02:31:56;;;;;;;12.83;9.27;;;9.10;99.90;;;8.69;100.00;98917.31;5085613;28;20539;-74
2023/10/01 02:34:24;;;;;;;13.10;9.30;;;9.10;99.90;;;8.69;100.00;98914.59;5087269;28;20518;-75
2023/10/01 02:36:52;;;;;;;10.80;8.43;;;9.10;99.90;;;8.55;100.00;98935.09;5090025;28;20499;-75
2023/10/01 02:39:21;;;;;;;11.73;9.00;;;9.10;99.90;;;8.56;100.00;98930.53;5086504;28;20476;-75
2023/10/01 02:42:09;;;;;;;14.83;10.50;;;9.00;99.90;;;8.58;100.00;98912.38;5086124;28;20957;-75
2023/10/01 02:44:40;;;;;;;16.63;11.60;;;9.00;99.90;;;8.58;100.00;98906.97;5089928;28;20510;-75
2023/10/01 02:47:16;;;;;;;11.23;8.97;;;9.00;99.90;;;8.62;100.00;98905.59;5075404;28;20458;-75
2023/10/01 02:49:49;;;;;;;11.97;9.53;;;9.10;99.90;;;8.70;100.00;98905.50;5088847;28;20448;-75
2023/10/01 02:52:18;;;;;;;11.93;8.90;;;9.20;99.90;;;8.30;100.00;98845.56;5088537;28;20538;-75
2023/10/01 02:54:47;;;;;;;11.70;9.00;;;9.10;99.90;;;8.70;100.00;98899.28;5088764;28;21072;-76
2023/10/01 02:57:23;;;;;;;11.73;9.07;;;9.10;99.90;;;8.75;100.00;98897.72;5088003;28;20449;-75
2023/10/01 03:02:50;;;;;;;13.70;9.00;;;9.20;99.90;;;8.74;100.00;98896.06;5072368;28;20821;-75
2023/10/01 03:05:27;;;;;;;14.30;9.83;;;9.20;99.90;;;8.86;100.00;98895.59;5089732;28;20987;-75
2023/10/01 03:07:54;;;;;;;12.57;9.67;;;9.30;99.90;;;8.91;100.00;98891.34;5087200;28;20648;-76
2023/10/01 03:10:27;;;;;;;14.47;9.43;;;9.40;99.90;;;8.98;100.00;98898.72;5086401;28;20507;-76
2023/10/01 03:12:58;;;;;;;10.33;8.70;;;9.40;99.90;;;8.95;100.00;98886.41;5085385;28;20456;-75
2023/10/01 03:15:27;;;;;;;9.90;8.50;;;9.40;99.90;;;8.94;100.00;98890.16;5084993;28;20441;-76
2023/10/01 03:17:58;;;;;;;12.73;9.83;;;9.40;99.90;;;8.26;100.00;98790.38;5089172;28;20460;-76
2023/10/01 03:23:12;;;;;;;9.50;8.50;;;9.30;99.90;;;8.81;100.00;98885.38;5065344;28;20494;-76
2023/10/01 03:25:42;;;;;;;11.90;9.47;;;9.30;99.90;;;8.71;100.00;98880.22;5088858;28;20544;-76
2023/10/01 03:28:25;;;;;;;15.97;9.80;;;9.20;99.90;;;8.70;100.00;98878.56;5089047;28;20462;-76
2023/10/01 03:31:06;;;;;;;13.97;8.87;;;9.20;99.90;;;8.68;100.00;98875.22;5088570;28;20459;-75
2023/10/01 03:33:37;;;;;;;12.10;8.23;;;9.10;99.90;;;8.60;100.00;98869.91;5101262;28;20516;-76
2023/10/01 03:36:09;;;;;;;10.43;8.20;;;9.10;99.90;;;8.63;100.00;98873.06;5089258;28;20446;-77
2023/10/01 03:38:37;;;;;;;10.60;8.73;;;9.10;99.90;;;8.62;100.00;98867.88;5085656;28;20450;-75
2023/10/01 03:41:08;;;;;;;10.30;8.83;;;9.10;99.90;;;8.57;100.00;98870.25;5088546;28;20562;-75
2023/10/01 03:43:36;;;;;;;11.07;8.27;;;9.10;99.90;;;8.52;100.00;98867.28;5088694;28;20558;-76
2023/10/01 03:46:13;;;;;;;11.50;9.17;;;9.00;99.90;;;8.48;100.00;98874.84;5088279;28;20440;-75
2023/10/01 03:49:00;;;;;;;13.00;9.60;;;9.00;99.90;;;8.43;100.00;98874.56;5080521;28;20824;-73
2023/10/01 03:51:52;;;;;;;12.03;8.77;;;8.90;99.90;;;8.42;100.00;98876.44;5080764;28;20590;-75
2023/10/01 03:54:19;;;;;;;11.33;8.90;;;8.90;99.90;;;8.30;100.00;98872.47;5084090;28;20544;-74
2023/10/01 03:56:56;;;;;;;15.27;9.83;;;8.90;99.90;;;8.38;100.00;98887.75;5092527;28;20976;-75
2023/10/01 03:59:25;;;;;;;13.87;9.67;;;8.90;99.90;;;8.38;100.00;98880.47;5085801;28;20465;-75
2023/10/01 04:02:02;;;;;;;10.70;9.00;;;8.90;99.90;;;8.34;100.00;98884.56;5089116;28;20506;-75
2023/10/01 04:04:32;;;;;;;12.67;9.87;;;8.90;99.90;;;8.48;100.00;98870.31;5086811;28;20499;-75
2023/10/01 04:07:09;;;;;;;10.53;8.90;;;8.90;99.90;;;8.46;100.00;98877.72;5086541;28;20497;-76
2023/10/01 04:09:46;;;;;;;13.40;10.03;;;9.00;99.90;;;8.46;100.00;98879.56;5077849;28;20449;-75
2023/10/01 04:12:19;;;;;;;14.80;8.50;;;9.00;99.90;;;8.50;100.00;98876.38;5088206;28;20461;-75
2023/10/01 04:14:48;;;;;;;11.90;8.80;;;9.00;99.90;;;8.50;100.00;98883.63;5086631;28;20828;-75
2023/10/01 04:17:18;;;;;;;14.93;9.67;;;9.00;99.90;;;8.53;100.00;98877.88;5087895;28;20483;-75
2023/10/01 04:19:49;;;;;;;10.37;8.17;;;9.00;99.90;;;8.45;100.00;98876.06;5086691;28;20481;-76
2023/10/01 04:22:21;;;;;;;12.53;8.90;;;8.90;99.90;;;8.40;100.00;98867.66;5088161;28;20554;-76
2023/10/01 04:25:00;;;;;;;14.00;9.70;;;8.90;99.90;;;8.40;100.00;98864.97;5078442;28;20585;-75
2023/10/01 04:27:34;;;;;;;13.63;9.40;;;8.90;99.90;;;8.37;100.00;98854.56;5086942;28;20568;-75
2023/10/01 04:30:07;;;;;;;14.37;9.40;;;9.00;99.90;;;8.47;100.00;98863.25;5096232;28;20832;-76
2023/10/01 04:32:36;;;;;;;11.50;8.70;;;8.90;99.90;;;8.34;100.00;98868.41;5096756;28;20464;-75
2023/10/01 04:35:14;;;;;;;13.53;8.93;;;8.90;99.90;;;8.38;100.00;98852.72;5091151;28;20467;-74
2023/10/01 04:37:42;;;;;;;14.03;8.73;;;8.80;99.90;;;8.33;100.00;98866.72;5095858;28;20449;-76
2023/10/01 04:43:08;;;;;;;10.30;7.77;;;8.70;99.90;;;8.21;100.00;98875.22;5085590;28;20891;-76
2023/10/01 04:45:37;;;;;;;11.63;8.63;;;8.70;99.90;;;8.16;100.00;98877.63;5087264;28;20491;-76
2023/10/01 04:48:15;;;;;;;14.83;9.30;;;8.60;99.90;;;8.09;100.00;98876.63;5087076;28;21012;-76
2023/10/01 04:50:43;;;;;;;11.20;8.23;;;8.60;99.90;;;8.08;100.00;98880.34;5087182;28;20790;-77
2023/10/01 04:53:13;;;;;;;13.27;8.80;;;8.60;99.90;;;8.08;100.00;98880.34;5078766;28;20959;-75
2023/10/01 04:55:43;;;;;;;15.00;9.33;;;8.60;99.90;;;8.11;100.00;98873.78;5085018;28;20506;-76
2023/10/01 04:58:14;;;;;;;17.10;10.07;;;8.60;99.90;;;8.12;100.00;98878.16;5084193;28;21034;-77
2023/10/01 05:00:44;;;;;;;15.07;9.00;;;8.60;99.90;;;8.15;100.00;98880.47;5079611;28;20450;-75
2023/10/01 05:03:14;;;;;;;11.73;7.93;;;8.60;99.90;;;8.07;100.00;98873.28;5085613;28;20765;-76
2023/10/01 05:05:42;;;;;;;13.90;8.50;;;8.70;99.90;;;8.18;100.00;98878.28;5087769;28;20448;-75
2023/10/01 05:08:12;;;;;;;11.23;8.40;;;8.70;99.90;;;8.21;100.00;98885.97;5085797;28;21277;-76
2023/10/01 05:10:51;;;;;;;12.00;9.37;;;8.70;99.90;;;8.20;100.00;98887.00;5084790;28;20459;-76
2023/10/01 05:13:22;;;;;;;12.07;9.30;;;8.70;99.90;;;8.28;100.00;98887.97;5085890;28;20442;-76
2023/10/01 05:15:52;;;;;;;13.07;9.17;;;8.70;99.90;;;8.24;100.00;98887.50;5081503;28;20985;-76
2023/10/01 05:18:20;;;;;;;13.23;10.17;;;8.70;99.90;;;8.22;100.00;98887.66;5086334;28;20825;-76
2023/10/01 05:20:48;;;;;;;14.90;9.37;;;8.70;99.90;;;7.79;100.00;98811.91;5085103;28;20462;-76
2023/10/01 05:23:17;;;;;;;13.83;9.30;;;8.70;99.90;;;8.25;100.00;98896.38;5094068;28;20937;-76
2023/10/01 05:25:45;;;;;;;11.90;9.00;;;8.70;99.90;;;8.41;100.00;98880.13;5098687;28;20440;-76
2023/10/01 05:28:31;;;;;;;12.70;8.90;;;8.80;99.90;;;7.80;100.00;98802.81;5085679;28;20615;-76
2023/10/01 05:31:00;;;;;;;11.00;9.00;;;8.80;99.90;;;8.42;100.00;98899.81;5083322;28;20540;-76
2023/10/01 05:33:32;;;;;;;11.43;8.33;;;8.80;99.90;;;8.38;100.00;98896.63;5086920;28;20462;-75
2023/10/01 05:36:04;;;;;;;15.53;10.10;;;8.90;99.90;;;8.36;100.00;98888.75;5085875;28;20458;-74
2023/10/01 05:38:34;;;;;;;16.10;9.13;;;8.90;99.90;;;8.38;100.00;98906.59;5084995;28;20448;-75
2023/10/01 05:41:03;;;;;;;17.93;9.73;;;8.90;99.90;;;8.42;100.00;98913.28;5078235;28;20836;-75
2023/10/01 05:43:35;;;;;;;13.57;9.90;;;8.90;99.90;;;8.41;100.00;98917.81;5086414;28;20468;-76
2023/10/01 05:46:08;;;;;;;14.97;9.23;;;8.90;99.90;;;8.49;100.00;98925.84;5086163;28;20456;-75
2023/10/01 05:48:37;;;;;;;14.13;9.73;;;9.00;99.90;;;8.44;100.00;98914.78;5085289;28;20460;-75
2023/10/01 05:51:06;;;;;;;11.17;9.40;;;9.00;99.80;;;8.57;100.00;98932.22;5087074;28;20944;-77
2023/10/01 05:53:33;;;;;;;11.83;8.60;;;9.00;99.50;;;8.56;100.00;98926.00;5084237;28;20786;-76
2023/10/01 05:56:08;;;;;;;14.27;9.87;;;9.00;99.30;;;8.49;100.00;98925.84;5082739;28;20451;-75
2023/10/01 05:58:36;;;;;;;15.33;9.80;;;9.10;99.90;;;8.59;100.00;98931.03;5091019;28;21245;-75
2023/10/01 06:01:14;;;;;;;12.40;8.13;;;9.10;99.90;;;8.67;100.00;98932.81;5085220;28;20563;-75
2023/10/01 06:03:42;;;;;;;13.37;9.40;;;9.20;98.90;;;8.62;100.00;98935.22;5086259;28;20606;-76
2023/10/01 06:06:10;;;;;;;12.07;8.97;;;9.20;98.10;;;8.71;100.00;98934.13;5083254;28;20435;-75
2023/10/01 06:08:49;;;;;;;12.90;8.70;;;9.20;98.10;;;8.67;100.00;98940.91;5089136;28;20803;-76
2023/10/01 06:11:18;;;;;;;11.77;8.00;;;9.20;97.10;;;8.59;100.00;98935.59;5098485;28;20453;-75
2023/10/01 06:13:50;;;;;;;12.37;9.80;;;9.20;97.10;;;8.60;100.00;98942.66;5086027;28;20529;-75
2023/10/01 06:16:23;;;;;;;10.87;7.87;;;9.20;97.20;;;8.66;100.00;98949.19;5090094;28;20458;-76
2023/10/01 06:18:56;;;;;;;11.17;8.67;;;9.20;97.70;;;8.62;100.00;98952.19;5088949;28;20517;-75
2023/10/01 06:21:25;;;;;;;11.30;8.70;;;9.20;97.30;;;8.78;100.00;98951.25;5089205;28;20476;-75
2023/10/01 06:23:54;;;;;;;9.87;8.27;;;9.20;97.50;;;8.95;99.40;98959.19;5083119;28;20472;-76
2023/10/01 06:26:29;;;;;;;9.20;7.20;;;9.30;97.70;;;8.92;99.09;98959.56;5089439;28;20464;-76
2023/10/01 06:28:57;;;;;;;9.93;8.23;;;9.40;96.50;;;9.01;98.50;98955.75;5086244;28;21102;-75
2023/10/01 06:31:27;;;;;;;13.10;8.17;;;9.40;96.60;;;9.01;99.42;98961.16;5089081;28;20462;-77
2023/10/01 06:33:55;;;;;;;14.70;7.80;;;9.50;96.80;;;9.32;99.20;98957.50;5088972;28;20450;-76
2023/10/01 06:36:25;;;;;;;10.50;8.57;;;9.60;97.60;;;9.37;97.73;98950.72;5090562;28;20764;-76
2023/10/01 06:38:54;;;;;;;12.80;7.93;;;9.70;96.50;;;9.44;96.57;98941.72;5086396;28;20452;-76
2023/10/01 06:41:28;;;;;;;10.63;8.10;;;9.80;95.60;;;9.64;95.69;98957.31;5088109;28;20499;-76
2023/10/01 06:43:56;;;;;;;8.80;7.33;;;10.00;94.60;;;9.66;94.97;98949.06;5088236;28;20494;-75
2023/10/01 06:46:28;;;;;;;10.07;7.90;;;10.00;93.80;;;9.72;94.69;98956.41;5093279;28;20452;-75
2023/10/01 06:48:58;;;;;;;9.80;6.90;;;10.10;93.70;;;9.84;93.69;98956.75;5098904;28;20450;-75
2023/10/01 06:51:26;;;;;;;10.70;8.50;;;10.20;93.60;;;10.06;94.32;98946.84;5104423;28;20447;-75
2023/10/01 06:53:58;;;;;;;12.13;8.67;;;10.30;93.70;;;10.34;95.21;98949.69;5102057;28;20456;-75
2023/10/01 06:56:29;;;;;;;12.93;8.80;;;10.60;94.30;;;10.46;93.29;98955.44;5086524;28;20454;-74
2023/10/01 06:59:17;;;;;;;10.67;7.90;;;10.70;93.60;;;10.52;92.73;98951.13;5088558;28;20442;-77
2023/10/01 07:01:49;;;;;;;11.43;8.77;;;10.80;92.80;;;10.60;92.67;98959.09;5089040;28;20511;-76
2023/10/01 07:04:20;;;;;;;12.43;7.87;;;10.90;92.70;;;10.96;91.88;98957.34;5087962;28;20564;-76
2023/10/01 07:06:50;;;;;;;11.10;9.10;;;11.20;93.00;;;10.94;90.44;98959.44;5094781;28;20451;-76
2023/10/01 07:09:34;;;;;;;10.03;7.60;;;11.30;92.30;;;10.87;90.81;98948.56;5096901;28;20808;-75
2023/10/01 07:12:04;;;;;;;13.23;8.50;;;11.30;91.70;;;11.19;89.27;98957.13;5089282;28;20533;-76
2023/10/01 07:17:23;;;;;;;9.47;7.33;;;11.80;92.10;;;11.81;88.94;98958.34;5078481;28;20859;-75
2023/10/01 07:19:59;;;;;;;13.50;8.60;;;12.10;91.50;;;12.01;86.42;98958.44;5087577;28;20498;-76
2023/10/01 07:22:30;;;;;;;10.37;7.70;;;12.30;91.30;;;12.08;86.23;98945.81;5087876;28;20567;-76
2023/10/01 07:24:59;;;;;;;12.50;8.83;;;12.50;90.70;;;12.17;87.52;98950.00;5089179;28;20502;-76
2023/10/01 07:27:26;;;;;;;11.97;7.70;;;12.40;90.80;;;12.40;85.85;98956.09;5086817;28;20429;-76
2023/10/01 07:29:54;;;;;;;11.10;7.90;;;12.70;90.60;;;12.26;86.78;98952.53;5087245;28;20456;-76
2023/10/01 07:32:24;;;;;;;11.20;10.00;;;12.60;90.40;;;12.36;85.86;98955.69;5087989;28;20487;-75
2023/10/01 07:34:59;;;;;;;15.80;10.37;;;12.70;90.20;;;12.30;85.60;98953.78;5087163;28;20465;-75
2023/10/01 07:37:29;;;;;;;13.13;10.30;;;12.60;90.00;;;12.33;84.99;98959.66;5087397;28;20454;-75
2023/10/01 07:39:59;;;;;;;13.67;9.33;;;12.60;90.00;;;12.49;84.72;98962.16;5086744;28;20900;-75
2023/10/01 07:42:27;;;;;;;12.20;9.17;;;12.70;90.00;;;12.79;82.95;98956.38;5088407;28;20433;-76
2023/10/01 07:44:56;;;;;;;12.20;9.17;;;13.00;89.40;;;13.00;82.07;98961.63;5084772;28;20464;-76
2023/10/01 07:47:32;;;;;;;10.80;8.03;;;13.20;89.10;;;12.67;82.74;98962.44;5081171;28;20914;-76
2023/10/01 07:50:02;;;;;;;14.07;8.60;;;13.20;88.30;;;13.31;81.39;98957.44;5079811;28;20465;-75
2023/10/01 07:52:32;;;;;;;12.87;10.10;;;13.40;89.10;;;13.45;80.21;98958.28;5082712;28;20494;-75
2023/10/01 07:55:26;;;;;;;10.30;8.20;;;13.70;88.30;;;13.81;78.56;98961.56;5087688;28;20555;-76
2023/10/01 07:57:48;;;;;;;11.03;8.40;;;13.90;87.50;;;14.11;77.90;98966.47;5086399;28;21002;-75
2023/10/01 08:00:26;;;;;;;11.40;8.60;;;14.10;87.40;;;14.32;76.62;98961.75;5083503;28;20438;-76
2023/10/01 08:05:38;;;;;;;10.47;8.70;;;14.70;87.50;;;15.01;74.47;98970.16;5069558;28;20983;-76
2023/10/01 08:08:06;;;;;;;10.90;7.47;;;15.00;86.00;;;15.15;72.90;98973.59;5081705;28;21277;-76
2023/10/01 08:10:37;;;;;;;10.60;8.60;;;15.20;85.00;;;15.07;72.51;98975.75;5086934;28;20488;-77
2023/10/01 08:13:06;;;;;;;9.53;7.90;;;15.30;84.10;;;15.19;71.83;98971.25;5087063;28;20459;-75
2023/10/01 08:15:38;;;;;;;11.40;8.40;;;15.40;83.70;;;15.47;72.01;98978.13;5086715;28;20452;-77
2023/10/01 08:20:58;;;;;;;10.37;8.80;;;15.60;83.30;;;15.36;70.91;98977.00;5082147;28;20471;-76
2023/10/01 08:23:26;;;;;;;9.57;8.27;;;15.60;82.90;;;15.32;71.80;98972.22;5087017;28;20671;-76
2023/10/01 08:25:55;;;;;;;16.53;12.40;;;15.60;83.30;;;15.08;70.94;98955.66;5084885;28;20487;-76
2023/10/01 08:28:26;;;;;;;13.17;10.70;;;15.60;82.40;;;15.47;71.71;98975.41;5080030;28;20447;-77
2023/10/01 08:31:42;;;;;;;10.90;9.47;;;15.60;83.10;;;15.83;71.44;98975.69;5076286;28;20448;-75
2023/10/01 08:33:53;;;;;;;12.10;10.77;;;15.80;83.50;;;15.95;68.94;98967.63;5072308;28;20451;-76
2023/10/01 08:36:24;;;;;;;16.30;12.10;;;16.10;82.30;;;16.12;68.39;98974.09;5085802;28;20460;-75
2023/10/01 08:41:47;;;;;;;13.10;10.03;;;16.40;81.80;;;15.86;69.05;98981.53;5084586;28;20451;-76
2023/10/01 08:44:19;;;;;;;13.73;10.03;;;16.20;81.40;;;16.02;68.34;98968.38;5079185;28;20453;-76
2023/10/01 08:46:47;;;;;;;13.03;9.00;;;16.20;81.20;;;15.94;69.05;98974.13;5083755;28;20455;-74
2023/10/01 08:49:23;;;;;;;11.87;9.57;;;16.20;81.50;;;16.16;68.63;98979.13;5073055;28;20516;-76
2023/10/01 08:52:18;;;;;;;12.83;8.90;;;16.30;81.50;;;15.08;69.65;98899.34;5087591;28;20924;-75
2023/10/01 08:54:44;;;;;;;10.70;8.37;;;16.10;80.80;;;15.83;69.27;98970.25;5086313;28;20447;-75
2023/10/01 08:57:17;;;;;;;14.20;9.43;;;16.20;81.50;;;16.14;67.86;98966.53;5074307;28;20728;-75
2023/10/01 08:59:45;;;;;;;12.60;9.40;;;16.30;81.00;;;15.97;67.82;98976.38;5083920;28;20865;-75
2023/10/01 09:02:19;;;;;;;10.57;8.07;;;16.30;80.30;;;16.33;67.67;98969.25;5096404;28;20462;-76
2023/10/01 09:04:48;;;;;;;10.70;8.20;;;16.40;81.10;;;16.82;66.52;98965.63;5091239;28;21062;-75
2023/10/01 09:07:19;;;;;;;12.83;8.90;;;16.80;80.70;;;16.93;65.00;98959.38;5102276;28;20524;-75
2023/10/01 09:10:06;;;;;;;13.27;8.60;;;17.00;79.80;;;16.89;65.00;98960.88;5103503;28;20436;-75
2023/10/01 09:12:35;;;;;;;10.57;7.50;;;17.00;79.60;;;17.05;64.30;98964.03;5103552;28;20519;-75
2023/10/01 09:15:05;;;;;;;13.87;9.30;;;17.10;79.10;;;17.20;63.61;98961.69;5089826;28;20463;-76
2023/10/01 09:17:56;;;;;;;13.33;8.40;;;17.30;78.90;;;17.42;63.25;98959.19;5103321;28;20559;-76
2023/10/01 09:20:42;;;;;;;9.93;7.87;;;17.50;78.90;;;17.58;62.82;98951.34;5076101;28;20549;-75
2023/10/01 09:23:09;;;;;;;10.37;8.90;;;17.60;78.50;;;17.61;63.03;98952.78;5084421;28;20462;-76
2023/10/01 09:25:39;;;;;;;13.43;8.90;;;17.70;78.40;;;17.67;61.94;98960.03;5086994;28;20532;-75
2023/10/01 09:28:29;;;;;;;10.43;8.20;;;17.70;77.70;;;17.53;62.24;98952.09;5084295;28;20480;-75
2023/10/01 09:31:19;;;;;;;13.23;8.90;;;17.70;77.50;;;17.40;62.34;98960.53;5084357;28;21022;-75
2023/10/01 09:33:48;;;;;;;11.87;7.80;;;17.60;77.40;;;17.55;61.97;98963.63;5084281;28;20454;-77
2023/10/01 09:36:37;;;;;;;12.63;8.17;;;17.60;77.20;;;17.36;61.55;98901.97;5085596;28;20522;-75
2023/10/01 09:39:04;;;;;;;8.33;7.20;;;17.80;77.10;;;17.74;60.41;98952.53;5081285;28;20457;-75
2023/10/01 09:41:33;;;;;;;9.63;8.33;;;17.80;76.00;;;17.61;60.16;98955.53;5085815;28;20448;-76
2023/10/01 09:44:03;;;;;;;9.80;7.17;;;17.90;75.60;;;17.77;60.19;98951.25;5085112;28;20456;-76
2023/10/01 09:46:34;;;;;;;12.17;9.33;;;17.80;75.70;;;17.86;59.15;98946.22;5068124;28;20486;-75
2023/10/01 09:49:04;;;;;;;12.90;8.87;;;18.00;74.90;;;18.00;59.54;98936.69;5083464;28;20533;-75
2023/10/01 09:51:41;;;;;;;13.80;8.63;;;18.10;75.20;;;18.19;59.08;98944.75;5087020;28;20462;-75
2023/10/01 09:54:19;;;;;;;10.87;6.60;;;18.20;75.20;;;18.32;57.33;98944.47;5086479;28;20451;-75
2023/10/01 09:56:47;;;;;;;10.70;6.97;;;18.30;74.10;;;18.39;57.09;98947.88;5083687;28;20484;-74
2023/10/01 09:59:15;;;;;;;12.03;7.57;;;18.40;73.30;;;18.29;56.69;98941.38;5083657;28;20803;-76
2023/10/01 10:01:45;;;;;;;14.50;7.43;;;18.40;72.60;;;18.17;57.26;98946.91;5086204;28;20456;-74
2023/10/01 10:04:19;;;;;;;8.67;6.40;;;18.30;72.60;;;18.18;57.00;98948.56;5078368;28;21010;-75
2023/10/01 10:06:59;;;;;;;9.73;6.00;;;18.30;72.60;;;18.45;56.14;98947.97;5082412;28;20560;-75
2023/10/01 10:09:30;;;;;;;7.33;5.67;;;18.50;72.10;;;18.47;55.81;98940.38;5085173;28;21031;-75
2023/10/01 10:12:01;;;;;;;7.97;6.27;;;18.50;71.60;;;18.29;56.72;98949.59;5087309;28;20459;-76
2023/10/01 10:14:56;;;;;;;9.37;6.27;;;18.40;71.90;;;18.72;56.35;98936.41;5083700;28;20531;-75
2023/10/01 10:17:25;;;;;;;10.10;5.87;;;18.60;72.40;;;18.76;55.68;98934.88;5079206;28;20475;-75
2023/10/01 10:20:16;;;;;;;11.30;6.80;;;18.80;71.50;;;18.79;55.72;98932.44;5078585;28;20539;-77
2023/10/01 10:23:16;;;;;;;10.00;6.90;;;18.90;71.40;;;18.91;55.76;98935.13;5082219;28;20451;-77
2023/10/01 10:25:43;;;;;;;9.00;6.57;;;19.00;71.90;;;19.10;55.55;98935.72;5079166;28;20579;-77
2023/10/01 10:28:12;;;;;;;12.43;6.70;;;19.10;71.30;;;18.96;54.67;98926.16;5078832;28;20461;-77
2023/10/01 10:30:41;;;;;;;7.30;5.03;;;19.20;70.70;;;19.09;54.87;98931.31;5093666;28;20459;-77
2023/10/01 10:33:40;;;;;;;9.87;6.13;;;19.10;70.50;;;18.96;54.38;98926.16;5086148;28;20546;-77
2023/10/01 10:36:57;;;;;;;8.37;5.60;;;19.20;69.90;;;18.94;54.71;98926.41;5085511;28;20482;-76
2023/10/01 10:40:22;;;;;;;9.97;6.07;;;19.10;69.70;;;18.85;55.37;98929.81;5082303;28;20456;-77
2023/10/01 10:43:21;;;;;;;10.13;6.40;;;19.00;69.90;;;19.18;54.52;98907.09;5081613;28;20468;-78
2023/10/01 10:46:03;;;;;;;9.10;5.63;;;19.20;70.20;;;19.44;54.81;98923.91;5081089;28;20473;-76
2023/10/01 10:49:02;;;;;;;10.83;5.90;;;19.30;70.40;;;19.37;54.53;98909.56;5078507;28;20810;-76
2023/10/01 10:51:49;;;;;;;10.27;5.57;;;19.50;70.10;;;19.66;54.21;98917.66;5091222;28;20510;-77
2023/10/01 10:54:33;;;;;;;9.70;6.00;;;19.60;70.00;;;19.74;52.94;98911.72;5082969;28;20570;-76
2023/10/01 10:57:04;;;;;;;7.60;5.47;;;19.80;69.30;;;19.79;53.17;98920.03;5087471;28;20444;-76
2023/10/01 10:59:32;;;;;;;10.70;6.60;;;19.80;69.20;;;19.63;53.64;98912.66;5076480;28;20479;-75